sensor_id;sensor_type;location;lat;lon;timestamp;pressure;altitude;pressure_sealevel;temperature;humidity
22047;BME280;11187;49.412;20.956;2023-01-31T00:01:39;94127.19;;;-1.22;100.00
22047;BME280;11187;49.412;20.956;2023-01-31T00:04:31;94127.19;;;-1.21;100.00
22047;BME280;11187;49.412;20.956;2023-01-31T00:07:37;94131.38;;;-1.21;100.00
22047;BME280;11187;49.412;20.956;2023-01-31T00:10:29;94120.47;;;-1.22;100.00
22047;BME280;11187;49.412;20.956;2023-01-31T00:13:41;94131.38;;;-1.20;100.00
22047;BME280;11187;49.412;20.956;2023-01-31T00:16:33;94124.66;;;-1.21;100.00
22047;BME280;11187;49.412;20.956;2023-01-31T00:19:40;94121.31;;;-1.21;100.00
22047;BME280;11187;49.412;20.956;2023-01-31T00:22:31;94126.31;;;-1.23;100.00
22047;BME280;11187;49.412;20.956;2023-01-31T00:25:44;94115.41;;;-1.27;100.00
22047;BME280;11187;49.412;20.956;2023-01-31T00:28:35;94123.75;;;-1.28;100.00
22047;BME280;11187;49.412;20.956;2023-01-31T00:31:41;94112.84;;;-1.30;100.00
22047;BME280;11187;49.412;20.956;2023-01-31T00:34:32;94117.00;;;-1.33;100.00
22047;BME280;11187;49.412;20.956;2023-01-31T00:37:45;94129.53;;;-1.38;100.00
22047;BME280;11187;49.412;20.956;2023-01-31T00:40:37;94129.41;;;-1.45;100.00
22047;BME280;11187;49.412;20.956;2023-01-31T00:43:24;94126.88;;;-1.49;100.00
22047;BME280;11187;49.412;20.956;2023-01-31T00:45:57;94129.31;;;-1.55;100.00
22047;BME280;11187;49.412;20.956;2023-01-31T00:48:51;94125.91;;;-1.60;100.00
22047;BME280;11187;49.412;20.956;2023-01-31T00:51:45;94138.41;;;-1.64;100.00
22047;BME280;11187;49.412;20.956;2023-01-31T00:54:18;94130.78;;;-1.72;100.00
22047;BME280;11187;49.412;20.956;2023-01-31T00:57:05;94134.88;;;-1.77;100.00
22047;BME280;11187;49.412;20.956;2023-01-31T00:59:38;94137.34;;;-1.82;100.00
22047;BME280;11187;49.412;20.956;2023-01-31T01:02:25;94129.75;;;-1.86;100.00
22047;BME280;11187;49.412;20.956;2023-01-31T01:04:58;94120.56;;;-1.87;100.00
22047;BME280;11187;49.412;20.956;2023-01-31T01:07:46;94134.78;;;-1.88;100.00
22047;BME280;11187;49.412;20.956;2023-01-31T01:10:19;94133.06;;;-1.91;100.00
22047;BME280;11187;49.412;20.956;2023-01-31T01:13:06;94135.59;;;-1.89;100.00
22047;BME280;11187;49.412;20.956;2023-01-31T01:15:39;94139.78;;;-1.88;100.00
22047;BME280;11187;49.412;20.956;2023-01-31T01:18:26;94154.88;;;-1.85;100.00
22047;BME280;11187;49.412;20.956;2023-01-31T01:21:23;94159.09;;;-1.82;100.00
22047;BME280;11187;49.412;20.956;2023-01-31T01:24:04;94152.41;;;-1.80;100.00
22047;BME280;11187;49.412;20.956;2023-01-31T01:26:45;94155.81;;;-1.75;100.00
22047;BME280;11187;49.412;20.956;2023-01-31T01:29:39;94154.31;;;-1.65;100.00
22047;BME280;11187;49.412;20.956;2023-01-31T01:32:33;94158.56;;;-1.57;100.00
22047;BME280;11187;49.412;20.956;2023-01-31T01:35:06;94157.91;;;-1.45;100.00
22047;BME280;11187;49.412;20.956;2023-01-31T01:37:54;94159.66;;;-1.35;100.00
22047;BME280;11187;49.412;20.956;2023-01-31T01:40:34;94158.06;;;-1.28;100.00
22047;BME280;11187;49.412;20.956;2023-01-31T01:43:37;94153.09;;;-1.23;100.00
22047;BME280;11187;49.412;20.956;2023-01-31T01:46:15;94145.66;;;-1.17;100.00
22047;BME280;11187;49.412;20.956;2023-01-31T01:49:02;94155.75;;;-1.13;100.00
22047;BME280;11187;49.412;20.956;2023-01-31T01:51:43;94154.09;;;-1.08;100.00
22047;BME280;11187;49.412;20.956;2023-01-31T01:54:24;94151.69;;;-1.00;100.00
22047;BME280;11187;49.412;20.956;2023-01-31T01:57:23;94151.75;;;-0.95;100.00
22047;BME280;11187;49.412;20.956;2023-01-31T02:00:23;94160.13;;;-0.95;100.00
22047;BME280;11187;49.412;20.956;2023-01-31T02:03:17;94166.81;;;-0.94;100.00
22047;BME280;11187;49.412;20.956;2023-01-31T02:05:58;94166.84;;;-0.89;100.00
22047;BME280;11187;49.412;20.956;2023-01-31T02:08:54;94164.38;;;-0.86;100.00
22047;BME280;11187;49.412;20.956;2023-01-31T02:11:48;94167.75;;;-0.84;100.00
22047;BME280;11187;49.412;20.956;2023-01-31T02:14:21;94168.59;;;-0.83;100.00
22047;BME280;11187;49.412;20.956;2023-01-31T02:17:17;94176.09;;;-0.88;100.00
22047;BME280;11187;49.412;20.956;2023-01-31T02:22:57;94181.16;;;-0.82;100.00
22047;BME280;11187;49.412;20.956;2023-01-31T02:26:21;94187.91;;;-0.78;100.00
22047;BME280;11187;49.412;20.956;2023-01-31T02:35:19;94198.97;;;-0.64;100.00
22047;BME280;11187;49.412;20.956;2023-01-31T02:47:08;94201.59;;;-0.47;100.00
22047;BME280;11187;49.412;20.956;2023-01-31T02:50:07;94210.03;;;-0.43;100.00
22047;BME280;11187;49.412;20.956;2023-01-31T02:52:52;94203.31;;;-0.41;100.00
22047;BME280;11187;49.412;20.956;2023-01-31T02:55:48;94207.53;;;-0.40;100.00
22047;BME280;11187;49.412;20.956;2023-01-31T03:01:37;94216.78;;;-0.37;100.00
22047;BME280;11187;49.412;20.956;2023-01-31T03:04:13;94213.44;;;-0.38;100.00
22047;BME280;11187;49.412;20.956;2023-01-31T03:07:19;94232.72;;;-0.38;100.00
22047;BME280;11187;49.412;20.956;2023-01-31T03:10:05;94233.53;;;-0.38;100.00
22047;BME280;11187;49.412;20.956;2023-01-31T03:13:24;94237.75;;;-0.35;100.00
22047;BME280;11187;49.412;20.956;2023-01-31T03:16:30;94235.25;;;-0.34;100.00
22047;BME280;11187;49.412;20.956;2023-01-31T03:19:30;94244.47;;;-0.34;100.00
22047;BME280;11187;49.412;20.956;2023-01-31T03:22:25;94252.03;;;-0.33;100.00
22047;BME280;11187;49.412;20.956;2023-01-31T03:25:01;94249.50;;;-0.33;100.00
22047;BME280;11187;49.412;20.956;2023-01-31T03:27:55;94246.16;;;-0.33;100.00
22047;BME280;11187;49.412;20.956;2023-01-31T03:30:34;94267.97;;;-0.31;100.00
22047;BME280;11187;49.412;20.956;2023-01-31T03:33:25;94269.63;;;-0.33;100.00
22047;BME280;11187;49.412;20.956;2023-01-31T03:38:57;94271.34;;;-0.32;100.00
22047;BME280;11187;49.412;20.956;2023-01-31T03:41:49;94273.84;;;-0.32;100.00
22047;BME280;11187;49.412;20.956;2023-01-31T03:47:37;94282.22;;;-0.31;100.00
22047;BME280;11187;49.412;20.956;2023-01-31T03:58:41;94299.06;;;-0.24;100.00
22047;BME280;11187;49.412;20.956;2023-01-31T04:01:17;94290.69;;;-0.22;100.00
22047;BME280;11187;49.412;20.956;2023-01-31T04:04:45;94296.59;;;-0.18;100.00
22047;BME280;11187;49.412;20.956;2023-01-31T04:07:22;94294.13;;;-0.15;100.00
22047;BME280;11187;49.412;20.956;2023-01-31T04:10:17;94300.00;;;-0.16;100.00
22047;BME280;11187;49.412;20.956;2023-01-31T04:13:12;94310.03;;;-0.14;100.00
22047;BME280;11187;49.412;20.956;2023-01-31T04:15:53;94312.56;;;-0.14;100.00
22047;BME280;11187;49.412;20.956;2023-01-31T04:18:47;94328.50;;;-0.14;100.00
22047;BME280;11187;49.412;20.956;2023-01-31T04:21:20;94331.00;;;-0.14;100.00
22047;BME280;11187;49.412;20.956;2023-01-31T04:24:08;94338.56;;;-0.15;100.00
22047;BME280;11187;49.412;20.956;2023-01-31T04:26:42;94338.53;;;-0.17;100.00
22047;BME280;11187;49.412;20.956;2023-01-31T04:29:29;94338.56;;;-0.14;100.00
22047;BME280;11187;49.412;20.956;2023-01-31T04:32:23;94331.88;;;-0.13;100.00
22047;BME280;11187;49.412;20.956;2023-01-31T04:35:17;94336.00;;;-0.17;100.00
22047;BME280;11187;49.412;20.956;2023-01-31T04:37:50;94333.50;;;-0.17;100.00
22047;BME280;11187;49.412;20.956;2023-01-31T04:40:44;94325.09;;;-0.19;100.00
22047;BME280;11187;49.412;20.956;2023-01-31T04:43:38;94331.81;;;-0.19;100.00
22047;BME280;11187;49.412;20.956;2023-01-31T04:46:32;94340.97;;;-0.23;100.00
22047;BME280;11187;49.412;20.956;2023-01-31T04:49:05;94349.34;;;-0.27;100.00
22047;BME280;11187;49.412;20.956;2023-01-31T04:51:52;94353.47;;;-0.34;100.00
22047;BME280;11187;49.412;20.956;2023-01-31T04:54:25;94355.94;;;-0.37;100.00
22047;BME280;11187;49.412;20.956;2023-01-31T04:57:12;94358.38;;;-0.42;100.00
22047;BME280;11187;49.412;20.956;2023-01-31T04:59:45;94359.19;;;-0.47;100.00
22047;BME280;11187;49.412;20.956;2023-01-31T05:02:32;94352.41;;;-0.53;100.00
22047;BME280;11187;49.412;20.956;2023-01-31T05:05:05;94346.50;;;-0.55;100.00
22047;BME280;11187;49.412;20.956;2023-01-31T05:08:00;94362.47;;;-0.51;100.00
22047;BME280;11187;49.412;20.956;2023-01-31T05:10:33;94364.16;;;-0.52;100.00
22047;BME280;11187;49.412;20.956;2023-01-31T05:13:22;94373.34;;;-0.52;100.00
22047;BME280;11187;49.412;20.956;2023-01-31T05:15:58;94370.03;;;-0.50;100.00
22047;BME280;11187;49.412;20.956;2023-01-31T05:18:45;94370.84;;;-0.51;100.00
22047;BME280;11187;49.412;20.956;2023-01-31T05:21:18;94380.09;;;-0.50;100.00
22047;BME280;11187;49.412;20.956;2023-01-31T05:24:12;94381.75;;;-0.52;100.00
22047;BME280;11187;49.412;20.956;2023-01-31T05:27:06;94369.19;;;-0.52;100.00
22047;BME280;11187;49.412;20.956;2023-01-31T05:29:39;94371.66;;;-0.53;100.00
22047;BME280;11187;49.412;20.956;2023-01-31T05:32:27;94390.09;;;-0.53;100.00
22047;BME280;11187;49.412;20.956;2023-01-31T05:35:00;94397.66;;;-0.54;100.00
22047;BME280;11187;49.412;20.956;2023-01-31T05:37:47;94394.22;;;-0.59;100.00
22047;BME280;11187;49.412;20.956;2023-01-31T05:40:20;94391.66;;;-0.63;100.00
22047;BME280;11187;49.412;20.956;2023-01-31T05:43:08;94403.38;;;-0.65;100.00
22047;BME280;11187;49.412;20.956;2023-01-31T05:45:41;94406.72;;;-0.64;100.00
22047;BME280;11187;49.412;20.956;2023-01-31T05:48:30;94418.41;;;-0.69;100.00
22047;BME280;11187;49.412;20.956;2023-01-31T05:51:03;94420.94;;;-0.68;100.00
22047;BME280;11187;49.412;20.956;2023-01-31T05:53:51;94417.56;;;-0.68;100.00
22047;BME280;11187;49.412;20.956;2023-01-31T05:56:24;94430.97;;;-0.69;100.00
22047;BME280;11187;49.412;20.956;2023-01-31T05:59:18;94438.56;;;-0.65;100.00
22047;BME280;11187;49.412;20.956;2023-01-31T06:02:12;94441.97;;;-0.61;100.00
22047;BME280;11187;49.412;20.956;2023-01-31T06:05:06;94454.56;;;-0.58;100.00
22047;BME280;11187;49.412;20.956;2023-01-31T06:07:40;94454.59;;;-0.55;100.00
22047;BME280;11187;49.412;20.956;2023-01-31T06:10:27;94459.69;;;-0.52;100.00
22047;BME280;11187;49.412;20.956;2023-01-31T06:13:00;94469.75;;;-0.50;100.00
22047;BME280;11187;49.412;20.956;2023-01-31T06:15:48;94463.91;;;-0.49;100.00
22047;BME280;11187;49.412;20.956;2023-01-31T06:18:21;94467.25;;;-0.52;100.00
22047;BME280;11187;49.412;20.956;2023-01-31T06:21:15;94453.81;;;-0.51;100.00
22047;BME280;11187;49.412;20.956;2023-01-31T06:23:48;94455.53;;;-0.50;100.00
22047;BME280;11187;49.412;20.956;2023-01-31T06:26:35;94465.59;;;-0.48;100.00
22047;BME280;11187;49.412;20.956;2023-01-31T06:29:08;94468.09;;;-0.50;100.00
22047;BME280;11187;49.412;20.956;2023-01-31T06:31:55;94472.31;;;-0.47;100.00
22047;BME280;11187;49.412;20.956;2023-01-31T06:34:28;94474.81;;;-0.49;100.00
22047;BME280;11187;49.412;20.956;2023-01-31T06:37:15;94476.50;;;-0.49;100.00
22047;BME280;11187;49.412;20.956;2023-01-31T06:39:48;94474.78;;;-0.50;100.00
22047;BME280;11187;49.412;20.956;2023-01-31T06:42:35;94489.88;;;-0.50;100.00
22047;BME280;11187;49.412;20.956;2023-01-31T06:45:08;94480.63;;;-0.53;100.00
22047;BME280;11187;49.412;20.956;2023-01-31T06:47:56;94498.22;;;-0.53;100.00
22047;BME280;11187;49.412;20.956;2023-01-31T06:50:29;94489.00;;;-0.52;100.00
22047;BME280;11187;49.412;20.956;2023-01-31T06:53:16;94485.72;;;-0.50;100.00
22047;BME280;11187;49.412;20.956;2023-01-31T06:55:49;94490.75;;;-0.50;100.00
22047;BME280;11187;49.412;20.956;2023-01-31T06:58:36;94486.53;;;-0.49;100.00
22047;BME280;11187;49.412;20.956;2023-01-31T07:01:11;94489.06;;;-0.49;100.00
22047;BME280;11187;49.412;20.956;2023-01-31T07:04:01;94489.00;;;-0.52;100.00
22047;BME280;11187;49.412;20.956;2023-01-31T07:06:34;94487.34;;;-0.50;100.00
22047;BME280;11187;49.412;20.956;2023-01-31T07:09:21;94487.34;;;-0.50;100.00
22047;BME280;11187;49.412;20.956;2023-01-31T07:11:54;94499.94;;;-0.49;100.00
22047;BME280;11187;49.412;20.956;2023-01-31T07:14:41;94494.16;;;-0.45;100.00
22047;BME280;11187;49.412;20.956;2023-01-31T07:17:14;94483.22;;;-0.47;100.00
22047;BME280;11187;49.412;20.956;2023-01-31T07:20:01;94483.22;;;-0.47;100.00
22047;BME280;11187;49.412;20.956;2023-01-31T07:22:34;94476.56;;;-0.45;100.00
22047;BME280;11187;49.412;20.956;2023-01-31T07:25:21;94475.72;;;-0.44;100.00
22047;BME280;11187;49.412;20.956;2023-01-31T07:27:55;94485.75;;;-0.44;100.00
22047;BME280;11187;49.412;20.956;2023-01-31T07:30:49;94477.28;;;-0.50;100.00
22047;BME280;11187;49.412;20.956;2023-01-31T07:33:43;94481.44;;;-0.52;100.00
22047;BME280;11187;49.412;20.956;2023-01-31T07:36:16;94491.50;;;-0.54;100.00
22047;BME280;11187;49.412;20.956;2023-01-31T07:39:05;94488.09;;;-0.57;100.00
22047;BME280;11187;49.412;20.956;2023-01-31T07:41:38;94482.25;;;-0.56;100.00
22047;BME280;11187;49.412;20.956;2023-01-31T07:44:25;94487.22;;;-0.59;100.00
22047;BME280;11187;49.412;20.956;2023-01-31T07:46:58;94506.63;;;-0.51;100.00
22047;BME280;11187;49.412;20.956;2023-01-31T07:49:52;94518.53;;;-0.40;100.00
22047;BME280;11187;49.412;20.956;2023-01-31T07:52:46;94534.44;;;-0.40;100.00
22047;BME280;11187;49.412;20.956;2023-01-31T07:55:40;94542.03;;;-0.38;100.00
22047;BME280;11187;49.412;20.956;2023-01-31T07:58:34;94556.31;;;-0.36;100.00
22047;BME280;11187;49.412;20.956;2023-01-31T08:01:22;94562.28;;;-0.29;100.00
22047;BME280;11187;49.412;20.956;2023-01-31T08:04:35;94574.91;;;-0.25;100.00
22047;BME280;11187;49.412;20.956;2023-01-31T08:07:08;94556.50;;;-0.22;100.00
22047;BME280;11187;49.412;20.956;2023-01-31T08:09:55;94582.59;;;-0.14;100.00
22047;BME280;11187;49.412;20.956;2023-01-31T08:12:28;94601.94;;;-0.10;100.00
22047;BME280;11187;49.412;20.956;2023-01-31T08:15:22;94607.88;;;-0.05;100.00
22047;BME280;11187;49.412;20.956;2023-01-31T08:18:16;94607.09;;;-0.02;100.00
22047;BME280;11187;49.412;20.956;2023-01-31T08:20:49;94609.59;;;-0.04;100.00
22047;BME280;11187;49.412;20.956;2023-01-31T08:23:36;94610.47;;;0.02;100.00
22047;BME280;11187;49.412;20.956;2023-01-31T08:26:20;94617.22;;;0.03;100.00
22047;BME280;11187;49.412;20.956;2023-01-31T08:29:01;94616.44;;;0.08;100.00
22047;BME280;11187;49.412;20.956;2023-01-31T08:31:41;94614.84;;;0.12;100.00
22047;BME280;11187;49.412;20.956;2023-01-31T08:34:35;94616.41;;;0.05;100.00
22047;BME280;11187;49.412;20.956;2023-01-31T08:37:29;94619.06;;;0.16;100.00
22047;BME280;11187;49.412;20.956;2023-01-31T08:40:03;94621.69;;;0.24;100.00
22047;BME280;11187;49.412;20.956;2023-01-31T08:42:59;94625.06;;;0.24;100.00
22047;BME280;11187;49.412;20.956;2023-01-31T08:45:32;94631.75;;;0.24;100.00
22047;BME280;11187;49.412;20.956;2023-01-31T08:48:19;94640.19;;;0.26;100.00
22047;BME280;11187;49.412;20.956;2023-01-31T08:50:52;94635.94;;;0.22;100.00
22047;BME280;11187;49.412;20.956;2023-01-31T08:53:46;94636.03;;;0.28;100.00
22047;BME280;11187;49.412;20.956;2023-01-31T08:56:20;94626.88;;;0.36;100.00
22047;BME280;11187;49.412;20.956;2023-01-31T08:59:09;94640.38;;;0.43;100.00
22047;BME280;11187;49.412;20.956;2023-01-31T09:01:42;94634.53;;;0.45;100.00
22047;BME280;11187;49.412;20.956;2023-01-31T09:04:29;94635.41;;;0.46;100.00
22047;BME280;11187;49.412;20.956;2023-01-31T09:07:02;94638.81;;;0.51;100.00
22047;BME280;11187;49.412;20.956;2023-01-31T09:09:49;94638.84;;;0.54;100.00
22047;BME280;11187;49.412;20.956;2023-01-31T09:12:22;94648.06;;;0.52;100.00
22047;BME280;11187;49.412;20.956;2023-01-31T09:15:09;94638.03;;;0.55;100.00
22047;BME280;11187;49.412;20.956;2023-01-31T09:17:44;94642.34;;;0.65;99.99
22047;BME280;11187;49.412;20.956;2023-01-31T09:20:31;94644.94;;;0.71;100.00
22047;BME280;11187;49.412;20.956;2023-01-31T09:23:04;94655.03;;;0.71;99.88
22047;BME280;11187;49.412;20.956;2023-01-31T09:25:53;94650.88;;;0.76;98.78
22047;BME280;11187;49.412;20.956;2023-01-31T09:28:26;94652.75;;;0.94;99.38
22047;BME280;11187;49.412;20.956;2023-01-31T09:31:15;94654.44;;;0.95;98.45
22047;BME280;11187;49.412;20.956;2023-01-31T09:33:48;94659.41;;;0.88;98.92
22047;BME280;11187;49.412;20.956;2023-01-31T09:36:35;94673.63;;;0.84;99.21
22047;BME280;11187;49.412;20.956;2023-01-31T09:39:10;94671.13;;;0.82;99.26
22047;BME280;11187;49.412;20.956;2023-01-31T09:45:41;94693.63;;;0.70;97.85
22047;BME280;11187;49.412;20.956;2023-01-31T09:48:23;94681.09;;;0.75;98.89
22047;BME280;11187;49.412;20.956;2023-01-31T09:51:12;94686.22;;;0.81;99.40
22047;BME280;11187;49.412;20.956;2023-01-31T09:53:49;94682.91;;;0.85;98.87
22047;BME280;11187;49.412;20.956;2023-01-31T09:56:57;94677.94;;;0.91;99.06
22047;BME280;11187;49.412;20.956;2023-01-31T10:00:14;94693.03;;;0.90;97.07
22047;BME280;11187;49.412;20.956;2023-01-31T10:06:29;94686.41;;;0.98;98.03
22047;BME280;11187;49.412;20.956;2023-01-31T10:09:47;94682.16;;;0.94;98.34
22047;BME280;11187;49.412;20.956;2023-01-31T10:12:27;94676.28;;;0.93;98.39
22047;BME280;11187;49.412;20.956;2023-01-31T10:15:32;94673.75;;;0.93;98.44
22047;BME280;11187;49.412;20.956;2023-01-31T10:18:31;94676.34;;;0.99;98.35
22047;BME280;11187;49.412;20.956;2023-01-31T10:21:13;94672.22;;;1.06;98.40
22047;BME280;11187;49.412;20.956;2023-01-31T10:24:19;94667.97;;;1.03;98.14
22047;BME280;11187;49.412;20.956;2023-01-31T10:27:01;94662.91;;;1.00;98.22
22047;BME280;11187;49.412;20.956;2023-01-31T10:29:54;94668.78;;;0.99;98.08
22047;BME280;11187;49.412;20.956;2023-01-31T10:33:02;94668.81;;;1.01;97.06
22047;BME280;11187;49.412;20.956;2023-01-31T10:36:08;94662.81;;;0.93;97.04
22047;BME280;11187;49.412;20.956;2023-01-31T10:39:17;94682.13;;;0.92;96.65
22047;BME280;11187;49.412;20.956;2023-01-31T10:42:34;94686.41;;;0.96;95.38
22047;BME280;11187;49.412;20.956;2023-01-31T10:45:28;94677.94;;;0.91;96.40
22047;BME280;11187;49.412;20.956;2023-01-31T10:48:13;94688.84;;;0.89;96.53
22047;BME280;11187;49.412;20.956;2023-01-31T10:56:56;94683.97;;;1.06;96.17
22047;BME280;11187;49.412;20.956;2023-01-31T10:59:33;94689.03;;;1.09;96.57
22047;BME280;11187;49.412;20.956;2023-01-31T11:02:27;94690.59;;;0.96;95.60
22047;BME280;11187;49.412;20.956;2023-01-31T11:05:04;94694.69;;;0.88;97.12
22047;BME280;11187;49.412;20.956;2023-01-31T11:07:51;94695.50;;;0.85;97.84
22047;BME280;11187;49.412;20.956;2023-01-31T11:10:30;94702.88;;;0.68;97.68
22047;BME280;11187;49.412;20.956;2023-01-31T11:13:25;94695.97;;;0.56;97.14
22047;BME280;11187;49.412;20.956;2023-01-31T11:16:19;94700.09;;;0.48;97.50
22047;BME280;11187;49.412;20.956;2023-01-31T11:18:53;94695.03;;;0.50;97.80
22047;BME280;11187;49.412;20.956;2023-01-31T11:21:40;94688.38;;;0.53;97.62
22047;BME280;11187;49.412;20.956;2023-01-31T11:24:19;94695.16;;;0.59;97.31
22047;BME280;11187;49.412;20.956;2023-01-31T11:27:11;94696.19;;;0.72;97.33
22047;BME280;11187;49.412;20.956;2023-01-31T11:29:53;94698.84;;;0.82;97.11
22047;BME280;11187;49.412;20.956;2023-01-31T11:32:43;94690.50;;;0.87;96.21
22047;BME280;11187;49.412;20.956;2023-01-31T11:41:26;94702.97;;;0.79;95.62
22047;BME280;11187;49.412;20.956;2023-01-31T11:44:11;94702.19;;;0.83;95.79
22047;BME280;11187;49.412;20.956;2023-01-31T11:47:02;94704.69;;;0.80;95.07
22047;BME280;11187;49.412;20.956;2023-01-31T11:49:40;94697.13;;;0.80;96.62
22047;BME280;11187;49.412;20.956;2023-01-31T11:52:31;94690.44;;;0.82;96.34
22047;BME280;11187;49.412;20.956;2023-01-31T11:55:07;94687.88;;;0.80;95.93
22047;BME280;11187;49.412;20.956;2023-01-31T11:58:01;94701.34;;;0.84;96.61
22047;BME280;11187;49.412;20.956;2023-01-31T12:00:59;94698.94;;;0.92;96.94
22047;BME280;11187;49.412;20.956;2023-01-31T12:03:32;94707.31;;;0.91;97.44
22047;BME280;11187;49.412;20.956;2023-01-31T12:06:38;94701.59;;;1.04;97.93
22047;BME280;11187;49.412;20.956;2023-01-31T12:09:21;94702.47;;;1.06;97.55
22047;BME280;11187;49.412;20.956;2023-01-31T12:11:57;94704.94;;;1.01;97.53
22047;BME280;11187;49.412;20.956;2023-01-31T12:14:47;94703.25;;;1.00;97.66
22047;BME280;11187;49.412;20.956;2023-01-31T12:17:20;94693.19;;;1.03;97.88
22047;BME280;11187;49.412;20.956;2023-01-31T12:20:17;94705.03;;;1.11;97.80
22047;BME280;11187;49.412;20.956;2023-01-31T12:26:32;94711.63;;;0.99;96.39
22047;BME280;11187;49.412;20.956;2023-01-31T12:41:38;94709.13;;;1.01;96.14
22047;BME280;11187;49.412;20.956;2023-01-31T12:50:27;94703.44;;;1.19;96.57
22047;BME280;11187;49.412;20.956;2023-01-31T13:05:43;94707.31;;;0.89;94.04
22047;BME280;11187;49.412;20.956;2023-01-31T13:08:48;94705.56;;;0.83;94.53
22047;BME280;11187;49.412;20.956;2023-01-31T13:14:31;94710.59;;;0.83;94.09
22047;BME280;11187;49.412;20.956;2023-01-31T13:17:26;94713.91;;;0.79;91.86
22047;BME280;11187;49.412;20.956;2023-01-31T13:20:24;94715.63;;;0.82;93.48
22047;BME280;11187;49.412;20.956;2023-01-31T13:23:01;94708.19;;;0.93;93.52
22047;BME280;11187;49.412;20.956;2023-01-31T13:25:54;94708.22;;;0.97;93.76
22047;BME280;11187;49.412;20.956;2023-01-31T13:28:31;94704.88;;;0.97;94.42
22047;BME280;11187;49.412;20.956;2023-01-31T13:31:29;94709.06;;;0.93;94.35
22047;BME280;11187;49.412;20.956;2023-01-31T13:34:33;94704.78;;;0.91;94.81
22047;BME280;11187;49.412;20.956;2023-01-31T13:37:14;94705.66;;;0.91;94.95
22047;BME280;11187;49.412;20.956;2023-01-31T13:40:22;94701.25;;;0.75;92.93
22047;BME280;11187;49.412;20.956;2023-01-31T13:43:01;94700.34;;;0.68;93.83
22047;BME280;11187;49.412;20.956;2023-01-31T13:46:07;94705.28;;;0.63;93.77
22047;BME280;11187;49.412;20.956;2023-01-31T13:52:31;94710.31;;;0.60;93.71
22047;BME280;11187;49.412;20.956;2023-01-31T13:58:18;94716.19;;;0.61;93.75
22047;BME280;11187;49.412;20.956;2023-01-31T14:01:00;94717.00;;;0.58;94.31
22047;BME280;11187;49.412;20.956;2023-01-31T14:13:22;94711.16;;;0.59;94.40
22047;BME280;11187;49.412;20.956;2023-01-31T14:15:57;94717.84;;;0.57;94.34
22047;BME280;11187;49.412;20.956;2023-01-31T14:18:44;94721.16;;;0.56;94.67
22047;BME280;11187;49.412;20.956;2023-01-31T14:30:39;94711.63;;;0.34;94.82
22047;BME280;11187;49.412;20.956;2023-01-31T14:33:21;94713.31;;;0.35;94.98
22047;BME280;11187;49.412;20.956;2023-01-31T14:45:35;94708.22;;;0.30;95.66
22047;BME280;11187;49.412;20.956;2023-01-31T14:57:44;94717.03;;;0.02;94.10
22047;BME280;11187;49.412;20.956;2023-01-31T15:00:29;94721.25;;;0.03;94.42
22047;BME280;11187;49.412;20.956;2023-01-31T15:03:29;94716.97;;;-0.01;94.53
22047;BME280;11187;49.412;20.956;2023-01-31T15:06:22;94721.09;;;-0.05;94.66
22047;BME280;11187;49.412;20.956;2023-01-31T15:11:59;94715.13;;;-0.13;94.42
22047;BME280;11187;49.412;20.956;2023-01-31T15:14:53;94705.06;;;-0.13;95.20
22047;BME280;11187;49.412;20.956;2023-01-31T15:17:50;94716.78;;;-0.15;95.78
22047;BME280;11187;49.412;20.956;2023-01-31T15:20:47;94714.22;;;-0.16;95.62
22047;BME280;11187;49.412;20.956;2023-01-31T15:23:27;94714.22;;;-0.16;96.22
22047;BME280;11187;49.412;20.956;2023-01-31T15:26:15;94712.53;;;-0.17;96.19
22047;BME280;11187;49.412;20.956;2023-01-31T15:28:51;94696.59;;;-0.18;96.57
22047;BME280;11187;49.412;20.956;2023-01-31T15:31:42;94693.25;;;-0.17;96.39
22047;BME280;11187;49.412;20.956;2023-01-31T15:34:24;94689.94;;;-0.14;96.20
22047;BME280;11187;49.412;20.956;2023-01-31T15:37:20;94689.09;;;-0.15;97.05
22047;BME280;11187;49.412;20.956;2023-01-31T15:40:15;94692.44;;;-0.14;97.11
22047;BME280;11187;49.412;20.956;2023-01-31T15:43:24;94691.59;;;-0.15;97.44
22047;BME280;11187;49.412;20.956;2023-01-31T15:46:25;94689.94;;;-0.16;97.21
22047;BME280;11187;49.412;20.956;2023-01-31T15:48:59;94688.25;;;-0.14;97.31
22047;BME280;11187;49.412;20.956;2023-01-31T15:54:50;94682.38;;;-0.14;97.86
22047;BME280;11187;49.412;20.956;2023-01-31T15:57:52;94685.75;;;-0.15;97.81
22047;BME280;11187;49.412;20.956;2023-01-31T16:00:35;94682.38;;;-0.16;97.90
22047;BME280;11187;49.412;20.956;2023-01-31T16:03:33;94682.31;;;-0.19;98.14
22047;BME280;11187;49.412;20.956;2023-01-31T16:06:32;94684.78;;;-0.21;98.22
22047;BME280;11187;49.412;20.956;2023-01-31T16:09:22;94689.06;;;-0.18;98.14
22047;BME280;11187;49.412;20.956;2023-01-31T16:12:09;94689.06;;;-0.18;98.00
22047;BME280;11187;49.412;20.956;2023-01-31T16:14:45;94681.50;;;-0.18;98.25
22047;BME280;11187;49.412;20.956;2023-01-31T16:17:44;94683.16;;;-0.18;98.62
22047;BME280;11187;49.412;20.956;2023-01-31T16:26:15;94689.72;;;-0.28;98.85
22047;BME280;11187;49.412;20.956;2023-01-31T16:28:58;94683.00;;;-0.28;98.97
22047;BME280;11187;49.412;20.956;2023-01-31T16:31:52;94679.63;;;-0.31;99.16
22047;BME280;11187;49.412;20.956;2023-01-31T16:35:00;94677.09;;;-0.31;99.42
22047;BME280;11187;49.412;20.956;2023-01-31T16:37:37;94668.72;;;-0.32;99.56
22047;BME280;11187;49.412;20.956;2023-01-31T16:40:27;94662.78;;;-0.35;99.49
22047;BME280;11187;49.412;20.956;2023-01-31T16:46:05;94664.38;;;-0.39;99.69
22047;BME280;11187;49.412;20.956;2023-01-31T16:49:24;94664.38;;;-0.39;100.00
22047;BME280;11187;49.412;20.956;2023-01-31T16:52:27;94674.44;;;-0.39;99.73
22047;BME280;11187;49.412;20.956;2023-01-31T16:55:21;94664.38;;;-0.40;99.78
22047;BME280;11187;49.412;20.956;2023-01-31T16:57:56;94671.94;;;-0.39;100.00
22047;BME280;11187;49.412;20.956;2023-01-31T17:00:43;94663.56;;;-0.38;100.00
22047;BME280;11187;49.412;20.956;2023-01-31T17:03:17;94667.72;;;-0.40;100.00